createdAt,value
2017-07-04T00:00:28.249Z,0
2017-07-04T00:01:38.757Z,0
2017-07-04T00:02:49.019Z,0
2017-07-04T00:03:59.280Z,0
2017-07-04T00:05:09.234Z,0
2017-07-04T00:06:18.861Z,0
2017-07-04T00:07:29.432Z,0
2017-07-04T00:08:39.696Z,0
2017-07-04T00:09:49.642Z,0
2017-07-04T00:10:59.891Z,0
2017-07-04T00:12:09.525Z,0
2017-07-04T00:13:20.079Z,0
2017-07-04T00:14:30.337Z,0
2017-07-04T00:15:40.608Z,0
2017-07-04T00:16:50.869Z,0
2017-07-04T00:18:01.126Z,0
2017-07-04T00:19:11.689Z,0
2017-07-04T00:20:21.933Z,0
2017-07-04T00:21:31.560Z,0
2017-07-04T00:22:41.799Z,0
2017-07-04T00:23:51.753Z,0
2017-07-04T00:25:01.644Z,0
2017-07-04T00:26:11.892Z,0
2017-07-04T00:27:22.151Z,0
2017-07-04T00:28:32.416Z,0
2017-07-04T00:29:42.415Z,0
2017-07-04T00:30:52.360Z,0
2017-07-04T00:32:02.302Z,0
2017-07-04T00:33:12.259Z,0
2017-07-04T00:34:22.538Z,0
2017-07-04T00:35:32.799Z,0
2017-07-04T00:36:43.347Z,0
2017-07-04T00:37:52.997Z,0
2017-07-04T00:39:02.944Z,0
2017-07-04T00:40:12.879Z,0
2017-07-04T00:41:23.128Z,0
2017-07-04T00:42:33.685Z,0
2017-07-04T00:43:43.942Z,0
2017-07-04T00:44:54.217Z,0
2017-07-04T00:46:04.475Z,0
2017-07-04T00:47:14.412Z,0
2017-07-04T00:48:25.012Z,0
2017-07-04T00:49:34.953Z,0
2017-07-04T00:50:45.220Z,0
2017-07-04T00:51:55.479Z,0
2017-07-04T00:53:05.762Z,0
2017-07-04T00:54:16.050Z,0
2017-07-04T00:55:26.313Z,0
2017-07-04T00:56:36.261Z,0
2017-07-04T00:57:45.575Z,0
2017-07-04T00:58:55.200Z,0
2017-07-04T01:00:05.723Z,0
2017-07-04T01:01:15.997Z,0
2017-07-04T01:02:25.933Z,0
2017-07-04T01:03:36.196Z,0
2017-07-04T01:04:46.465Z,0
2017-07-04T01:05:56.666Z,0
2017-07-04T01:07:06.926Z,0
2017-07-04T01:08:16.865Z,0
2017-07-04T01:09:27.137Z,0
2017-07-04T01:10:37.403Z,0
2017-07-04T01:11:47.621Z,0
2017-07-04T01:12:57.888Z,0
2017-07-04T01:14:08.161Z,0
2017-07-04T01:15:18.410Z,0
2017-07-04T01:16:28.670Z,0
2017-07-04T01:17:38.904Z,0
2017-07-04T01:18:48.876Z,0
2017-07-04T01:19:59.133Z,0
2017-07-04T01:21:09.083Z,0
2017-07-04T01:22:19.339Z,0
2017-07-04T01:23:29.265Z,0
2017-07-04T01:24:39.532Z,0
2017-07-04T01:25:49.485Z,0
2017-07-04T01:26:59.429Z,0
2017-07-04T01:28:09.366Z,0
2017-07-04T01:29:19.928Z,0
2017-07-04T01:30:30.187Z,0
2017-07-04T01:31:39.803Z,0
2017-07-04T01:32:49.763Z,0
2017-07-04T01:34:00.061Z,0
2017-07-04T01:35:09.991Z,0
2017-07-04T01:36:19.937Z,0
2017-07-04T01:37:30.210Z,0
2017-07-04T01:38:40.157Z,0
2017-07-04T01:39:50.414Z,0
2017-07-04T01:41:00.672Z,0
2017-07-04T01:42:10.943Z,0
2017-07-04T01:43:20.874Z,0
2017-07-04T01:44:30.813Z,0
2017-07-04T01:45:41.074Z,0
2017-07-04T01:46:51.006Z,0
2017-07-04T01:48:01.265Z,0
2017-07-04T01:49:11.216Z,0
2017-07-04T01:50:21.172Z,0
2017-07-04T01:51:31.447Z,0
2017-07-04T01:52:42.008Z,0
2017-07-04T01:53:51.966Z,0
2017-07-04T01:55:02.224Z,0
2017-07-04T01:56:12.172Z,0
2017-07-04T01:57:22.435Z,0
2017-07-04T01:58:32.677Z,0
2017-07-04T01:59:42.624Z,0
2017-07-04T02:00:52.885Z,0
2017-07-04T02:02:03.140Z,0
2017-07-04T02:03:13.081Z,0
2017-07-04T02:04:23.346Z,0
2017-07-04T02:05:33.631Z,0
2017-07-04T02:06:43.878Z,0
2017-07-04T02:07:53.833Z,0
2017-07-04T02:09:03.772Z,0
2017-07-04T02:10:14.381Z,0
2017-07-04T02:11:24.332Z,0
2017-07-04T02:12:34.575Z,0
2017-07-04T02:13:44.854Z,0
2017-07-04T02:14:55.107Z,0
2017-07-04T02:16:05.631Z,0
2017-07-04T02:17:15.896Z,0
2017-07-04T02:18:26.154Z,0
2017-07-04T02:19:36.093Z,0
2017-07-04T02:20:46.354Z,0
2017-07-04T02:21:56.596Z,0
2017-07-04T02:23:05.905Z,0
2017-07-04T02:24:15.540Z,0
2017-07-04T02:25:25.485Z,0
2017-07-04T02:26:35.415Z,0
2017-07-04T02:27:45.623Z,0
2017-07-04T02:28:55.576Z,0
2017-07-04T02:30:05.523Z,0
2017-07-04T02:31:15.800Z,0
2017-07-04T02:32:25.427Z,0
2017-07-04T02:33:35.938Z,0
2017-07-04T02:34:45.883Z,0
2017-07-04T02:35:55.836Z,0
2017-07-04T02:37:05.778Z,0
2017-07-04T02:38:15.730Z,0
2017-07-04T02:39:25.935Z,5
2017-07-04T02:40:35.923Z,5
2017-07-04T02:41:45.851Z,5
2017-07-04T02:42:55.790Z,5
2017-07-04T02:44:06.056Z,5
2017-07-04T02:45:15.985Z,5
2017-07-04T02:46:25.935Z,10
2017-07-04T02:47:35.552Z,10
2017-07-04T02:48:45.834Z,10
2017-07-04T02:49:55.783Z,10
2017-07-04T02:51:05.719Z,10
2017-07-04T02:52:15.664Z,15
2017-07-04T02:53:25.295Z,15
2017-07-04T02:54:35.562Z,15
2017-07-04T02:55:45.872Z,20
2017-07-04T02:56:56.430Z,20
2017-07-04T02:58:06.379Z,20
2017-07-04T02:59:16.012Z,25
2017-07-04T03:00:25.947Z,25
2017-07-04T03:01:36.211Z,25
2017-07-04T03:02:46.793Z,30
2017-07-04T03:03:57.045Z,30
2017-07-04T03:05:07.290Z,30
2017-07-04T03:06:17.548Z,35
2017-07-04T03:07:27.830Z,35
2017-07-04T03:08:37.439Z,40
2017-07-04T03:09:47.071Z,40
2017-07-04T03:10:57.343Z,40
2017-07-04T03:12:06.964Z,45
2017-07-04T03:13:16.894Z,45
2017-07-04T03:14:27.462Z,45
2017-07-04T03:15:37.412Z,45
2017-07-04T03:16:47.699Z,45
2017-07-04T03:17:57.968Z,50
2017-07-04T03:19:07.608Z,50
2017-07-04T03:20:18.173Z,55
2017-07-04T03:21:28.121Z,60
2017-07-04T03:22:38.375Z,60
2017-07-04T03:23:48.653Z,65
2017-07-04T03:24:58.920Z,65
2017-07-04T03:26:09.166Z,65
2017-07-04T03:27:19.433Z,70
2017-07-04T03:28:29.687Z,75
2017-07-04T03:29:39.635Z,75
2017-07-04T03:30:49.585Z,80
2017-07-04T03:32:00.112Z,85
2017-07-04T03:33:10.063Z,85
2017-07-04T03:34:20.312Z,85
2017-07-04T03:35:30.573Z,90
2017-07-04T03:36:40.825Z,90
2017-07-04T03:37:51.330Z,95
2017-07-04T03:39:01.290Z,100
2017-07-04T03:40:11.244Z,100
2017-07-04T03:41:21.181Z,105
2017-07-04T03:42:31.430Z,105
2017-07-04T03:43:41.955Z,110
2017-07-04T03:44:52.217Z,115
2017-07-04T03:46:02.482Z,115
2017-07-04T03:47:12.427Z,115
2017-07-04T03:48:22.388Z,120
2017-07-04T03:49:32.915Z,125
2017-07-04T03:50:43.228Z,125
2017-07-04T03:51:53.494Z,125
2017-07-04T03:53:03.465Z,130
2017-07-04T03:54:13.094Z,130
2017-07-04T03:55:23.606Z,130
2017-07-04T03:56:33.234Z,130
2017-07-04T03:57:43.487Z,130
2017-07-04T03:58:53.428Z,135
2017-07-04T04:00:03.692Z,140
2017-07-04T04:01:13.943Z,135
2017-07-04T04:02:23.890Z,135
2017-07-04T04:03:34.151Z,135
2017-07-04T04:04:44.424Z,135
2017-07-04T04:05:54.384Z,135
2017-07-04T04:07:04.911Z,125
2017-07-04T04:08:15.199Z,125
2017-07-04T04:09:25.463Z,125
2017-07-04T04:10:35.717Z,130
2017-07-04T04:11:45.351Z,145
2017-07-04T04:12:55.924Z,155
2017-07-04T04:14:06.187Z,155
2017-07-04T04:15:16.135Z,160
2017-07-04T04:16:26.086Z,165
2017-07-04T04:17:36.040Z,170
2017-07-04T04:18:46.278Z,165
2017-07-04T04:19:56.552Z,165
2017-07-04T04:21:06.191Z,165
2017-07-04T04:22:16.452Z,165
2017-07-04T04:23:26.702Z,170
2017-07-04T04:24:36.930Z,185
2017-07-04T04:25:46.561Z,195
2017-07-04T04:26:56.539Z,205
2017-07-04T04:28:06.483Z,185
2017-07-04T04:29:16.676Z,200
2017-07-04T04:30:27.181Z,195
2017-07-04T04:31:37.463Z,205
2017-07-04T04:32:47.094Z,190
2017-07-04T04:33:57.363Z,190
2017-07-04T04:35:07.624Z,185
2017-07-04T04:36:17.812Z,185
2017-07-04T04:37:28.080Z,185
2017-07-04T04:38:38.025Z,215
2017-07-04T04:39:47.979Z,210
2017-07-04T04:40:58.240Z,235
2017-07-04T04:42:08.773Z,230
2017-07-04T04:43:18.729Z,205
2017-07-04T04:44:28.673Z,260
2017-07-04T04:45:38.933Z,215
2017-07-04T04:46:49.192Z,220
2017-07-04T04:47:59.443Z,205
2017-07-04T04:49:09.382Z,175
2017-07-04T04:50:19.336Z,190
2017-07-04T04:51:29.594Z,200
2017-07-04T04:52:39.849Z,175
2017-07-04T04:53:50.378Z,205
2017-07-04T04:55:00.339Z,150
2017-07-04T04:56:10.282Z,170
2017-07-04T04:57:20.553Z,150
2017-07-04T04:58:30.521Z,145
2017-07-04T04:59:41.015Z,140
2017-07-04T05:00:51.269Z,165
2017-07-04T05:02:01.218Z,150
2017-07-04T05:03:11.468Z,165
2017-07-04T05:04:21.082Z,190
2017-07-04T05:05:31.648Z,265
2017-07-04T05:06:41.925Z,255
2017-07-04T05:07:52.184Z,280
2017-07-04T05:09:02.471Z,280
2017-07-04T05:10:12.740Z,260
2017-07-04T05:11:23.317Z,255
2017-07-04T05:12:33.887Z,235
2017-07-04T05:13:44.159Z,220
2017-07-04T05:14:54.432Z,210
2017-07-04T05:16:04.075Z,215
2017-07-04T05:17:14.639Z,225
2017-07-04T05:18:24.904Z,230
2017-07-04T05:19:34.853Z,215
2017-07-04T05:20:45.110Z,260
2017-07-04T05:21:55.363Z,175
2017-07-04T05:23:05.872Z,200
2017-07-04T05:24:15.815Z,265
2017-07-04T05:25:25.764Z,230
2017-07-04T05:26:36.026Z,245
2017-07-04T05:27:46.297Z,255
2017-07-04T05:28:56.542Z,250
2017-07-04T05:30:06.802Z,260
2017-07-04T05:31:17.071Z,265
2017-07-04T05:32:27.010Z,275
2017-07-04T05:33:36.965Z,290
2017-07-04T05:34:47.551Z,250
2017-07-04T05:35:57.502Z,235
2017-07-04T05:37:07.469Z,250
2017-07-04T05:38:17.724Z,280
2017-07-04T05:39:27.685Z,265
2017-07-04T05:40:38.205Z,195
2017-07-04T05:41:48.172Z,215
2017-07-04T05:42:58.477Z,230
2017-07-04T05:44:08.418Z,250
2017-07-04T05:45:18.691Z,275
2017-07-04T05:46:29.251Z,320
2017-07-04T05:47:39.521Z,255
2017-07-04T05:48:49.467Z,290
2017-07-04T05:49:59.103Z,305
2017-07-04T05:51:09.053Z,180
2017-07-04T05:52:19.262Z,165
2017-07-04T05:53:29.545Z,245
2017-07-04T05:54:39.835Z,340
2017-07-04T05:55:49.799Z,370
2017-07-04T05:56:59.741Z,415
2017-07-04T05:58:10.000Z,415
2017-07-04T05:59:20.313Z,345
2017-07-04T06:00:29.915Z,365
2017-07-04T06:01:40.182Z,420
2017-07-04T06:02:50.133Z,425
2017-07-04T06:04:00.697Z,415
2017-07-04T06:05:10.648Z,400
2017-07-04T06:06:19.970Z,360
2017-07-04T06:07:29.597Z,420
2017-07-04T06:08:39.548Z,410
2017-07-04T06:09:50.052Z,460
2017-07-04T06:10:59.999Z,400
2017-07-04T06:12:10.282Z,455
2017-07-04T06:13:20.244Z,490
2017-07-04T06:14:30.583Z,510
2017-07-04T06:15:40.807Z,460
2017-07-04T06:16:51.076Z,410
2017-07-04T06:18:01.329Z,370
2017-07-04T06:19:11.639Z,400
2017-07-04T06:20:21.923Z,420
2017-07-04T06:21:32.503Z,470
2017-07-04T06:22:42.494Z,485
2017-07-04T06:23:52.794Z,460
2017-07-04T06:25:03.069Z,470
2017-07-04T06:26:13.444Z,545
2017-07-04T06:27:24.040Z,470
2017-07-04T06:28:34.336Z,465
2017-07-04T06:29:44.299Z,380
2017-07-04T06:30:54.593Z,345
2017-07-04T06:32:04.567Z,345
2017-07-04T06:33:14.811Z,400
2017-07-04T06:34:24.805Z,365
2017-07-04T06:35:35.117Z,385
2017-07-04T06:36:44.770Z,390
2017-07-04T06:37:55.035Z,380
2017-07-04T06:39:05.961Z,445
2017-07-04T06:40:15.962Z,520
2017-07-04T06:41:26.142Z,515
2017-07-04T06:42:36.104Z,390
2017-07-04T06:43:46.413Z,375
2017-07-04T06:44:56.672Z,355
2017-07-04T06:46:06.643Z,400
2017-07-04T06:47:16.907Z,480
2017-07-04T06:48:27.193Z,515
2017-07-04T06:49:37.466Z,575
2017-07-04T06:50:47.720Z,645
2017-07-04T06:51:57.984Z,550
2017-07-04T06:53:07.997Z,495
2017-07-04T06:54:18.261Z,475
2017-07-04T06:55:28.446Z,435
2017-07-04T06:56:39.010Z,420
2017-07-04T06:57:49.002Z,455
2017-07-04T06:58:59.357Z,460
2017-07-04T07:00:09.003Z,485
2017-07-04T07:01:19.284Z,495
2017-07-04T07:02:29.806Z,490
2017-07-04T07:03:40.111Z,550
2017-07-04T07:04:50.073Z,600
2017-07-04T07:05:59.732Z,625
2017-07-04T07:07:09.680Z,525
2017-07-04T07:09:29.785Z,375
2017-07-04T07:10:40.067Z,395
2017-07-04T07:11:49.712Z,450
2017-07-04T07:13:00.003Z,435
2017-07-04T07:14:10.530Z,470
2017-07-04T07:15:20.487Z,545
2017-07-04T07:16:30.795Z,545
2017-07-04T07:17:41.063Z,525
2017-07-04T07:18:51.340Z,525
2017-07-04T07:20:01.550Z,475
2017-07-04T07:21:11.535Z,425
2017-07-04T07:22:21.523Z,385
2017-07-04T07:23:31.793Z,390
2017-07-04T07:24:42.076Z,385
2017-07-04T07:25:52.585Z,425
2017-07-04T07:27:02.863Z,510
2017-07-04T07:28:12.816Z,600
2017-07-04T07:29:22.809Z,595
2017-07-04T07:30:33.082Z,545
2017-07-04T07:31:43.032Z,535
2017-07-04T07:32:52.988Z,565
2017-07-04T07:34:03.267Z,560
2017-07-04T07:35:13.532Z,465
2017-07-04T07:36:22.861Z,430
2017-07-04T07:37:33.385Z,360
2017-07-04T07:38:43.670Z,350
2017-07-04T07:39:53.971Z,365
2017-07-04T07:41:03.930Z,405
2017-07-04T07:42:13.907Z,480
2017-07-04T07:43:24.115Z,440
2017-07-04T07:44:34.394Z,390
2017-07-04T07:45:44.362Z,420
2017-07-04T07:46:54.008Z,450
2017-07-04T07:48:03.977Z,455
2017-07-04T07:49:14.167Z,450
2017-07-04T07:50:24.137Z,460
2017-07-04T07:51:34.475Z,475
2017-07-04T07:52:44.812Z,545
2017-07-04T07:53:55.106Z,630
2017-07-04T07:55:05.634Z,625
2017-07-04T07:56:15.648Z,710
2017-07-04T07:57:25.922Z,650
2017-07-04T07:58:36.206Z,495
2017-07-04T07:59:46.166Z,430
2017-07-04T08:00:56.746Z,470
2017-07-04T08:02:07.057Z,520
2017-07-04T08:03:17.049Z,540
2017-07-04T08:04:27.323Z,510
2017-07-04T08:05:37.856Z,455
2017-07-04T08:06:48.431Z,515
2017-07-04T08:07:58.708Z,515
2017-07-04T08:09:08.978Z,505
2017-07-04T08:10:18.926Z,465
2017-07-04T08:11:29.199Z,460
2017-07-04T08:12:39.703Z,480
2017-07-04T08:13:49.684Z,530
2017-07-04T08:14:59.655Z,585
2017-07-04T08:16:09.625Z,605
2017-07-04T08:17:19.906Z,590
2017-07-04T08:18:30.095Z,500
2017-07-04T08:19:40.038Z,560
2017-07-04T08:20:50.417Z,610
2017-07-04T08:22:00.687Z,585
2017-07-04T08:23:10.316Z,555
2017-07-04T08:24:20.511Z,555
2017-07-04T08:25:30.799Z,555
2017-07-04T08:26:41.088Z,545
2017-07-04T08:27:51.058Z,535
2017-07-04T08:29:01.332Z,525
2017-07-04T08:30:11.229Z,515
2017-07-04T08:31:21.191Z,520
2017-07-04T08:32:31.153Z,575
2017-07-04T08:33:41.166Z,625
2017-07-04T08:34:51.689Z,615
2017-07-04T08:36:02.195Z,615
2017-07-04T08:37:12.490Z,675
2017-07-04T08:38:22.763Z,795
2017-07-04T08:39:32.739Z,635
2017-07-04T08:40:43.030Z,630
2017-07-04T08:41:53.253Z,595
2017-07-04T08:43:03.551Z,530
2017-07-04T08:44:13.852Z,545
2017-07-04T08:45:24.131Z,1615
2017-07-04T08:46:34.404Z,1555
2017-07-04T08:47:45.067Z,650
2017-07-04T08:48:55.067Z,1635
2017-07-04T08:50:05.017Z,1560
2017-07-04T08:51:14.666Z,1590
2017-07-04T08:52:24.615Z,1645
2017-07-04T08:53:35.147Z,1685
2017-07-04T08:54:44.773Z,1815
2017-07-04T08:55:54.434Z,1740
2017-07-04T08:57:04.412Z,1205
2017-07-04T08:58:14.685Z,1740
2017-07-04T08:59:24.584Z,680
2017-07-04T09:00:34.230Z,775
2017-07-04T09:01:44.504Z,830
2017-07-04T09:02:54.787Z,775
2017-07-04T09:04:05.068Z,845
2017-07-04T09:05:15.567Z,660
2017-07-04T09:06:25.853Z,545
2017-07-04T09:07:35.792Z,550
2017-07-04T09:08:45.432Z,1680
2017-07-04T09:09:55.399Z,1875
2017-07-04T09:11:05.594Z,2080
2017-07-04T09:12:15.885Z,1095
2017-07-04T09:13:26.155Z,1615
2017-07-04T09:14:36.451Z,1880
2017-07-04T09:15:46.726Z,1835
2017-07-04T09:16:56.940Z,1925
2017-07-04T09:18:07.589Z,1910
2017-07-04T09:19:17.865Z,2135
2017-07-04T09:20:28.154Z,1840
2017-07-04T09:21:38.427Z,1915
2017-07-04T09:22:48.700Z,1855
2017-07-04T09:23:58.657Z,1855
2017-07-04T09:25:08.942Z,1310
2017-07-04T09:26:19.224Z,1890
2017-07-04T09:27:29.525Z,2095
2017-07-04T09:28:40.050Z,1975
2017-07-04T09:29:50.316Z,1965
2017-07-04T09:31:00.278Z,2530
2017-07-04T09:32:10.244Z,2690
2017-07-04T09:33:20.515Z,1250
2017-07-04T09:34:30.729Z,1595
2017-07-04T09:35:41.010Z,2270
2017-07-04T09:36:51.279Z,1180
2017-07-04T09:38:00.939Z,1000
2017-07-04T09:39:10.582Z,2230
2017-07-04T09:40:21.116Z,2165
2017-07-04T09:41:31.407Z,2240
2017-07-04T09:42:41.696Z,2525
2017-07-04T09:43:51.666Z,2505
2017-07-04T09:45:01.961Z,2370
2017-07-04T09:46:12.259Z,2460
2017-07-04T09:47:22.532Z,850
2017-07-04T09:48:32.486Z,2490
2017-07-04T09:49:42.130Z,810
2017-07-04T09:50:52.109Z,760
2017-07-04T09:52:02.630Z,780
2017-07-04T09:53:12.891Z,805
2017-07-04T09:54:23.158Z,2530
2017-07-04T09:55:33.429Z,790
2017-07-04T09:56:43.701Z,2545
2017-07-04T09:57:54.304Z,2460
2017-07-04T09:59:04.652Z,2400
2017-07-04T10:00:14.972Z,1645
2017-07-04T10:01:25.237Z,2690
2017-07-04T10:02:35.603Z,1160
2017-07-04T10:03:46.142Z,2775
2017-07-04T10:04:56.430Z,2595
2017-07-04T10:06:06.388Z,860
2017-07-04T10:07:16.688Z,855
2017-07-04T10:08:26.659Z,835
2017-07-04T10:09:36.869Z,760
2017-07-04T10:10:47.150Z,765
2017-07-04T10:11:57.429Z,2785
2017-07-04T10:13:07.376Z,2415
2017-07-04T10:14:17.335Z,2540
2017-07-04T10:15:27.906Z,2640
2017-07-04T10:16:37.877Z,2770
2017-07-04T10:17:48.157Z,1025
2017-07-04T10:18:58.128Z,2565
2017-07-04T10:20:08.392Z,2900
2017-07-04T10:21:18.974Z,815
2017-07-04T10:22:29.251Z,865
2017-07-04T10:23:39.219Z,3000
2017-07-04T10:24:49.501Z,1040
2017-07-04T10:25:59.768Z,1900
2017-07-04T10:27:09.667Z,1060
2017-07-04T10:28:19.956Z,2950
2017-07-04T10:29:30.239Z,930
2017-07-04T10:30:39.915Z,2870
2017-07-04T10:31:49.899Z,895
2017-07-04T10:32:59.818Z,3165
2017-07-04T10:34:10.150Z,1015
2017-07-04T10:35:20.422Z,1225
2017-07-04T10:36:30.706Z,3015
2017-07-04T10:37:40.979Z,2925
2017-07-04T10:38:51.199Z,2805
2017-07-04T10:40:00.851Z,2910
2017-07-04T10:41:10.806Z,3035
2017-07-04T10:42:20.784Z,3100
2017-07-04T10:43:31.049Z,3285
2017-07-04T10:44:41.642Z,3375
2017-07-04T10:45:51.950Z,3260
2017-07-04T10:47:02.242Z,3305
2017-07-04T10:48:12.218Z,975
2017-07-04T10:49:22.497Z,3090
2017-07-04T10:50:33.010Z,3185
2017-07-04T10:51:43.356Z,3305
2017-07-04T10:52:53.392Z,1820
2017-07-04T10:54:03.676Z,3305
2017-07-04T10:55:13.041Z,2255
2017-07-04T10:56:23.572Z,1405
2017-07-04T10:57:33.545Z,3170
2017-07-04T10:58:43.799Z,3200
2017-07-04T10:59:53.769Z,1265
2017-07-04T11:01:04.059Z,3520
2017-07-04T11:02:14.802Z,3425
2017-07-04T11:03:25.079Z,3190
2017-07-04T11:04:35.052Z,3035
2017-07-04T11:05:45.340Z,2900
2017-07-04T11:06:55.319Z,2990
2017-07-04T11:08:05.848Z,3155
2017-07-04T11:09:16.161Z,3200
2017-07-04T11:10:26.115Z,3120
2017-07-04T11:11:36.387Z,3080
2017-07-04T11:12:46.689Z,3200
2017-07-04T11:13:56.911Z,3205
2017-07-04T11:15:06.895Z,3245
2017-07-04T11:16:17.173Z,2840
2017-07-04T11:17:27.394Z,1800
2017-07-04T11:18:37.654Z,1665
2017-07-04T11:19:47.856Z,2840
2017-07-04T11:20:58.145Z,3550
2017-07-04T11:22:08.430Z,3510
2017-07-04T11:23:18.716Z,2595
2017-07-04T11:24:29.000Z,3440
2017-07-04T11:25:39.519Z,960
2017-07-04T11:26:49.459Z,3395
2017-07-04T11:27:59.749Z,3565
2017-07-04T11:29:10.024Z,2390
2017-07-04T11:30:20.373Z,3600
2017-07-04T11:31:30.604Z,3455
2017-07-04T11:32:39.944Z,3475
2017-07-04T11:33:50.227Z,3560
2017-07-04T11:35:00.195Z,1330
2017-07-04T11:36:10.164Z,1085
2017-07-04T11:37:20.392Z,3310
2017-07-04T11:38:30.695Z,3295
2017-07-04T11:39:40.341Z,3285
2017-07-04T11:40:50.650Z,3375
2017-07-04T11:42:00.929Z,3390
2017-07-04T11:43:11.508Z,3550
2017-07-04T11:44:21.842Z,3570
2017-07-04T11:45:32.115Z,3590
2017-07-04T11:46:42.389Z,3495
2017-07-04T11:47:52.660Z,3505
2017-07-04T11:49:03.196Z,3570
2017-07-04T11:50:13.475Z,3450
2017-07-04T11:51:23.753Z,3205
2017-07-04T11:52:33.699Z,3160
2017-07-04T11:53:43.355Z,2835
2017-07-04T11:54:53.900Z,3120
2017-07-04T11:56:03.875Z,3350
2017-07-04T11:57:13.518Z,3595
2017-07-04T11:58:23.762Z,3770
2017-07-04T11:59:34.051Z,1265
2017-07-04T12:00:44.598Z,940
2017-07-04T12:01:54.868Z,3690
2017-07-04T12:03:05.380Z,1050
2017-07-04T12:04:15.650Z,1150
2017-07-04T12:05:25.917Z,985
2017-07-04T12:06:35.804Z,1170
2017-07-04T12:07:46.068Z,2455
2017-07-04T12:08:56.361Z,3760
2017-07-04T12:10:06.320Z,1275
2017-07-04T12:11:16.269Z,995
2017-07-04T12:12:26.487Z,1150
2017-07-04T12:13:36.749Z,1965
2017-07-04T12:14:46.725Z,3675
2017-07-04T12:15:56.371Z,3410
2017-07-04T12:17:06.654Z,3140
2017-07-04T12:18:17.195Z,3255
2017-07-04T12:19:27.465Z,3515
2017-07-04T12:20:37.446Z,3610
2017-07-04T12:21:47.742Z,3520
2017-07-04T12:22:58.021Z,3465
2017-07-04T12:24:08.536Z,3565
2017-07-04T12:25:18.208Z,3525
2017-07-04T12:26:28.493Z,980
2017-07-04T12:27:38.466Z,845
2017-07-04T12:28:48.417Z,815
2017-07-04T12:29:58.954Z,815
2017-07-04T12:31:08.917Z,900
2017-07-04T12:32:18.877Z,3255
2017-07-04T12:33:29.160Z,4465
2017-07-04T12:34:39.190Z,1040
2017-07-04T12:35:49.735Z,1420
2017-07-04T12:36:59.983Z,1610
2017-07-04T12:38:09.962Z,1720
2017-07-04T12:39:20.245Z,1355
2017-07-04T12:40:30.526Z,3195
2017-07-04T12:41:40.750Z,1415
2017-07-04T12:42:50.720Z,3645
2017-07-04T12:44:00.693Z,3465
2017-07-04T12:45:10.680Z,1230
2017-07-04T12:46:20.965Z,1310
2017-07-04T12:47:30.892Z,2120
2017-07-04T12:48:40.845Z,2265
2017-07-04T12:49:51.133Z,1980
2017-07-04T12:51:01.412Z,2615
2017-07-04T12:52:11.690Z,4015
2017-07-04T12:53:21.900Z,3855
2017-07-04T12:54:32.176Z,3790
2017-07-04T12:55:42.431Z,3855
2017-07-04T12:56:52.711Z,3680
2017-07-04T12:58:02.360Z,3540
2017-07-04T12:59:12.956Z,3625
2017-07-04T13:00:23.251Z,3665
2017-07-04T13:01:33.731Z,3670
2017-07-04T13:02:44.016Z,3710
2017-07-04T13:03:54.356Z,3635
2017-07-04T13:05:04.563Z,3700
2017-07-04T13:06:14.855Z,1175
2017-07-04T13:07:24.861Z,1760
2017-07-04T13:08:34.839Z,1170
2017-07-04T13:09:44.798Z,1050
2017-07-04T13:10:55.019Z,1020
2017-07-04T13:12:05.286Z,960
2017-07-04T13:13:15.634Z,875
2017-07-04T13:14:25.607Z,1040
2017-07-04T13:15:35.566Z,1080
2017-07-04T13:16:46.107Z,2055
2017-07-04T13:17:56.393Z,3735
2017-07-04T13:19:06.682Z,3540
2017-07-04T13:20:16.971Z,3515
2017-07-04T13:21:27.254Z,3745
2017-07-04T13:22:37.199Z,3855
2017-07-04T13:23:47.503Z,1735
2017-07-04T13:24:57.153Z,3980
2017-07-04T13:26:06.794Z,4185
2017-07-04T13:27:17.092Z,4235
2017-07-04T13:28:27.363Z,1075
2017-07-04T13:29:37.653Z,1200
2017-07-04T13:30:47.930Z,1885
2017-07-04T13:31:57.897Z,1130
2017-07-04T13:33:08.178Z,1480
2017-07-04T13:34:18.705Z,4065
2017-07-04T13:35:28.655Z,1485
2017-07-04T13:36:38.948Z,3640
2017-07-04T13:37:48.580Z,3685
2017-07-04T13:38:58.542Z,3745
2017-07-04T13:40:09.075Z,3810
2017-07-04T13:41:19.355Z,3770
2017-07-04T13:42:29.302Z,3740
2017-07-04T13:43:39.596Z,3690
2017-07-04T13:44:49.903Z,3715
2017-07-04T13:46:00.141Z,3715
2017-07-04T13:47:10.418Z,3680
2017-07-04T13:48:20.704Z,3700
2017-07-04T13:49:30.979Z,3660
2017-07-04T13:50:40.979Z,3615
2017-07-04T13:51:51.260Z,3770
2017-07-04T13:53:01.535Z,3995
2017-07-04T13:54:11.824Z,2415
2017-07-04T13:55:21.733Z,2375
2017-07-04T13:56:31.699Z,1030
2017-07-04T13:57:41.956Z,940
2017-07-04T13:58:51.921Z,920
2017-07-04T14:00:02.207Z,875
2017-07-04T14:01:12.480Z,890
2017-07-04T14:02:22.769Z,940
2017-07-04T14:03:33.305Z,1125
2017-07-04T14:04:43.575Z,990
2017-07-04T14:05:53.540Z,2755
2017-07-04T14:07:03.516Z,1175
2017-07-04T14:08:13.473Z,1090
2017-07-04T14:09:24.009Z,3115
2017-07-04T14:10:33.981Z,3790
2017-07-04T14:11:44.262Z,3760
2017-07-04T14:12:54.246Z,1130
2017-07-04T14:14:04.525Z,995
2017-07-04T14:15:14.751Z,975
2017-07-04T14:16:25.038Z,845
2017-07-04T14:17:35.318Z,860
2017-07-04T14:18:45.257Z,850
2017-07-04T14:19:55.214Z,900
2017-07-04T14:21:05.507Z,1120
2017-07-04T14:22:15.457Z,1110
2017-07-04T14:23:25.095Z,3700
2017-07-04T14:24:35.071Z,3180
2017-07-04T14:25:45.388Z,1050
2017-07-04T14:26:55.338Z,950
2017-07-04T14:28:05.648Z,3760
2017-07-04T14:29:15.923Z,915
2017-07-04T14:30:26.204Z,1000
2017-07-04T14:31:35.852Z,3165
2017-07-04T14:32:46.401Z,3095
2017-07-04T14:33:57.181Z,3105
2017-07-04T14:35:06.502Z,3190
2017-07-04T14:36:16.787Z,685
2017-07-04T14:37:27.071Z,3250
2017-07-04T14:38:37.626Z,2405
2017-07-04T14:39:47.919Z,3010
2017-07-04T14:40:58.209Z,3210
2017-07-04T14:42:08.172Z,3135
2017-07-04T14:43:18.472Z,3120
2017-07-04T14:44:28.383Z,3190
2017-07-04T14:45:38.382Z,3260
2017-07-04T14:46:48.660Z,3275
2017-07-04T14:47:58.970Z,3195
2017-07-04T14:49:08.933Z,3130
2017-07-04T14:50:19.145Z,3320
2017-07-04T14:51:29.439Z,3400
2017-07-04T14:52:39.716Z,3340
2017-07-04T14:53:50.039Z,3275
2017-07-04T14:55:00.315Z,3295
2017-07-04T14:56:10.526Z,3240
2017-07-04T14:57:20.500Z,940
2017-07-04T14:58:30.151Z,750
2017-07-04T14:59:40.144Z,710
2017-07-04T15:00:50.450Z,695
2017-07-04T15:02:00.992Z,675
2017-07-04T15:03:10.945Z,710
2017-07-04T15:04:21.214Z,3020
2017-07-04T15:05:30.844Z,3110
2017-07-04T15:06:40.491Z,3175
2017-07-04T15:07:51.033Z,890
2017-07-04T15:09:01.019Z,1075
2017-07-04T15:10:11.318Z,865
2017-07-04T15:11:21.288Z,3045
2017-07-04T15:12:31.583Z,2935
2017-07-04T15:13:41.474Z,2960
2017-07-04T15:14:51.749Z,3005
2017-07-04T15:16:02.045Z,3090
2017-07-04T15:17:12.327Z,920
2017-07-04T15:18:22.329Z,720
2017-07-04T15:19:32.556Z,655
2017-07-04T15:20:42.197Z,685
2017-07-04T15:21:51.850Z,640
2017-07-04T15:23:02.106Z,640
2017-07-04T15:24:12.077Z,680
2017-07-04T15:25:22.664Z,1200
2017-07-04T15:26:32.624Z,2880
2017-07-04T15:27:42.899Z,2940
2017-07-04T15:28:52.855Z,2680
2017-07-04T15:30:03.123Z,2810
2017-07-04T15:31:13.670Z,2585
2017-07-04T15:32:23.302Z,2730
2017-07-04T15:33:33.268Z,2640
2017-07-04T15:34:43.226Z,2690
2017-07-04T15:35:53.504Z,660
2017-07-04T15:37:04.035Z,605
2017-07-04T15:38:14.304Z,725
2017-07-04T15:39:24.598Z,710
2017-07-04T15:40:34.882Z,750
2017-07-04T15:41:45.180Z,740
2017-07-04T15:42:55.390Z,825
2017-07-04T15:44:05.667Z,680
2017-07-04T15:45:15.622Z,680
2017-07-04T15:46:25.588Z,695
2017-07-04T15:47:35.853Z,755
2017-07-04T15:48:45.732Z,2590
2017-07-04T15:49:56.007Z,745
2017-07-04T15:51:05.979Z,735
2017-07-04T15:52:15.955Z,750
2017-07-04T15:53:25.613Z,770
2017-07-04T15:54:35.817Z,905
2017-07-04T15:55:46.082Z,2150
2017-07-04T15:56:55.730Z,2650
2017-07-04T15:58:06.032Z,1675
2017-07-04T15:59:16.341Z,2645
2017-07-04T16:00:27.012Z,2650
2017-07-04T16:01:36.666Z,2500
2017-07-04T16:02:46.626Z,2345
2017-07-04T16:03:56.913Z,2315
2017-07-04T16:05:07.196Z,2295
2017-07-04T16:06:17.099Z,2195
2017-07-04T16:07:27.059Z,2175
2017-07-04T16:08:37.335Z,2160